createdAt,value
2019-03-26T00:02:29.415Z,2.87
2019-03-26T00:07:32.517Z,2.75
2019-03-26T00:12:35.286Z,2.42
2019-03-26T00:17:38.193Z,2.40
2019-03-26T00:22:40.935Z,2.70
2019-03-26T00:27:43.672Z,2.33
2019-03-26T00:32:46.558Z,2.40
2019-03-26T00:37:49.185Z,2.60
2019-03-26T00:42:51.903Z,2.95
2019-03-26T00:47:54.517Z,2.60
2019-03-26T00:52:57.292Z,2.58
2019-03-26T00:58:01.702Z,2.27
2019-03-26T01:03:05.474Z,2.75
2019-03-26T01:08:08.384Z,3.02
2019-03-26T01:13:11.211Z,2.67
2019-03-26T01:18:13.890Z,2.90
2019-03-26T01:23:16.717Z,2.75
2019-03-26T01:28:19.426Z,3.22
2019-03-26T01:33:22.371Z,3.22
2019-03-26T01:38:25.018Z,3.33
2019-03-26T01:43:28.088Z,3.55
2019-03-26T01:48:30.761Z,3.30
2019-03-26T01:53:33.388Z,3.17
2019-03-26T01:58:36.075Z,3.62
2019-03-26T02:03:38.821Z,3.40
2019-03-26T02:08:41.445Z,3.40
2019-03-26T02:13:44.394Z,3.00
2019-03-26T02:18:47.074Z,3.10
2019-03-26T02:23:49.808Z,3.47
2019-03-26T02:28:52.782Z,3.55
2019-03-26T02:33:55.762Z,3.30
2019-03-26T02:38:58.404Z,3.60
2019-03-26T02:44:01.093Z,3.27
2019-03-26T02:49:03.773Z,3.70
2019-03-26T02:54:06.405Z,3.85
2019-03-26T02:59:09.025Z,3.65
2019-03-26T03:04:11.672Z,3.60
2019-03-26T03:09:14.265Z,3.72
2019-03-26T03:14:16.979Z,3.55
2019-03-26T03:19:19.733Z,3.62
2019-03-26T03:24:22.394Z,3.70
2019-03-26T03:29:25.070Z,3.45
2019-03-26T03:34:27.926Z,4.12
2019-03-26T03:39:30.729Z,4.05
2019-03-26T03:44:33.654Z,3.95
2019-03-26T03:49:36.595Z,4.30
2019-03-26T03:54:41.553Z,4.25
2019-03-26T03:59:45.440Z,4.60
2019-03-26T04:04:48.168Z,3.83
2019-03-26T04:09:50.845Z,4.30
2019-03-26T04:14:53.525Z,4.12
2019-03-26T04:19:56.202Z,4.15
2019-03-26T04:24:58.880Z,4.25
2019-03-26T04:30:01.874Z,4.45
2019-03-26T04:35:04.884Z,4.62
2019-03-26T04:40:07.798Z,4.33
2019-03-26T04:45:10.546Z,4.42
2019-03-26T04:50:13.287Z,4.80
2019-03-26T04:55:16.134Z,5.03
2019-03-26T05:00:19.068Z,5.00
2019-03-26T05:05:21.804Z,4.28
2019-03-26T05:10:24.462Z,4.87
2019-03-26T05:15:27.156Z,4.53
2019-03-26T05:20:29.955Z,5.30
2019-03-26T05:25:32.657Z,5.40
2019-03-26T05:30:35.308Z,4.33
2019-03-26T05:35:38.210Z,5.15
2019-03-26T05:40:40.846Z,5.47
2019-03-26T05:45:43.713Z,5.33
2019-03-26T05:50:46.384Z,4.97
2019-03-26T05:55:49.458Z,4.67
2019-03-26T06:00:52.155Z,5.00
2019-03-26T06:05:55.096Z,4.85
2019-03-26T06:10:57.774Z,5.50
2019-03-26T06:16:00.400Z,5.22
2019-03-26T06:21:03.340Z,5.55
2019-03-26T06:26:06.182Z,5.17
2019-03-26T06:31:08.904Z,5.45
2019-03-26T06:36:11.778Z,5.45
2019-03-26T06:41:14.462Z,5.60
2019-03-26T06:46:17.160Z,5.47
2019-03-26T06:51:20.140Z,5.37
2019-03-26T06:56:22.968Z,6.55
2019-03-26T07:01:25.969Z,5.80
2019-03-26T07:06:28.631Z,5.40
2019-03-26T07:11:31.293Z,5.83
2019-03-26T07:16:34.162Z,6.58
2019-03-26T07:21:49.075Z,7.10
2019-03-26T07:26:41.646Z,6.90
2019-03-26T07:31:44.430Z,7.35
2019-03-26T07:36:47.286Z,8.03
2019-03-26T07:41:50.310Z,8.25
2019-03-26T07:46:53.052Z,8.55
2019-03-26T07:51:55.619Z,9.00
2019-03-26T07:56:58.258Z,8.05
2019-03-26T08:02:01.001Z,6.97
2019-03-26T08:07:03.638Z,7.70
2019-03-26T08:12:06.507Z,7.62
2019-03-26T08:17:09.046Z,7.40
2019-03-26T08:22:13.068Z,7.70
2019-03-26T08:27:15.676Z,6.10
2019-03-26T08:32:18.278Z,7.05
2019-03-26T08:37:20.890Z,5.30
2019-03-26T08:42:23.770Z,5.80
2019-03-26T08:47:26.382Z,5.35
2019-03-26T08:52:28.977Z,5.47
2019-03-26T08:57:31.659Z,5.62
2019-03-26T09:02:34.246Z,5.15
2019-03-26T09:07:36.889Z,5.12
2019-03-26T09:12:39.916Z,5.62
2019-03-26T09:17:44.407Z,6.30
2019-03-26T09:22:47.183Z,5.78
2019-03-26T09:27:52.361Z,6.20
2019-03-26T09:32:54.317Z,6.70
2019-03-26T09:37:57.003Z,5.90
2019-03-26T09:42:59.702Z,6.47
2019-03-26T09:48:02.304Z,6.67
2019-03-26T09:53:04.908Z,6.28
2019-03-26T09:58:07.489Z,6.53
2019-03-26T10:03:10.138Z,6.37
2019-03-26T10:08:12.812Z,7.05
2019-03-26T10:13:15.494Z,6.65
2019-03-26T10:18:18.118Z,5.78
2019-03-26T10:23:20.876Z,6.65
2019-03-26T10:28:23.849Z,6.33
2019-03-26T10:33:26.494Z,5.50
2019-03-26T10:38:29.101Z,6.62
2019-03-26T10:43:31.842Z,7.03
2019-03-26T10:48:34.426Z,8.33
2019-03-26T10:53:37.253Z,7.95
2019-03-26T10:58:39.910Z,8.15
2019-03-26T11:03:42.903Z,9.05
2019-03-26T11:08:45.536Z,9.40
2019-03-26T11:13:48.104Z,8.75
2019-03-26T11:18:50.748Z,8.40
2019-03-26T11:23:53.462Z,6.97
2019-03-26T11:28:56.025Z,6.42
2019-03-26T11:33:58.884Z,7.22
2019-03-26T11:39:01.867Z,7.00
2019-03-26T11:44:04.982Z,7.45
2019-03-26T11:49:07.906Z,6.70
2019-03-26T11:54:10.538Z,7.35
2019-03-26T11:59:13.198Z,7.97
2019-03-26T12:04:15.963Z,7.83
2019-03-26T12:09:19.160Z,6.60
2019-03-26T12:14:21.962Z,7.28
2019-03-26T12:19:24.581Z,7.33
2019-03-26T12:24:27.232Z,7.92
2019-03-26T12:29:29.827Z,8.30
2019-03-26T12:34:38.559Z,7.62
2019-03-26T12:39:44.078Z,6.80
2019-03-26T12:44:46.038Z,6.45
2019-03-26T12:49:48.640Z,5.65
2019-03-26T12:54:53.548Z,6.70
2019-03-26T12:59:56.313Z,6.72
2019-03-26T13:04:59.113Z,7.17
2019-03-26T13:10:13.318Z,8.18
2019-03-26T13:15:08.385Z,8.03
2019-03-26T13:20:12.004Z,7.83
2019-03-26T13:25:14.702Z,8.15
2019-03-26T13:30:17.708Z,7.37
2019-03-26T13:35:20.700Z,7.45
2019-03-26T13:40:27.583Z,6.80
2019-03-26T13:45:27.852Z,6.08
2019-03-26T13:50:30.490Z,5.62
2019-03-26T13:55:33.065Z,5.20
2019-03-26T14:00:37.434Z,4.97
2019-03-26T14:05:39.997Z,4.80
2019-03-26T14:10:42.618Z,4.60
2019-03-26T14:15:45.472Z,5.05
2019-03-26T14:20:48.137Z,4.60
2019-03-26T14:25:50.851Z,4.83
2019-03-26T14:30:53.643Z,4.28
2019-03-26T14:35:56.346Z,4.47
2019-03-26T14:40:58.955Z,4.00
2019-03-26T14:46:01.621Z,3.45
2019-03-26T14:51:04.262Z,3.58
2019-03-26T14:56:06.869Z,3.62
2019-03-26T15:01:09.613Z,3.58
2019-03-26T15:06:12.229Z,3.52
2019-03-26T15:11:14.777Z,3.47
2019-03-26T15:16:17.403Z,3.72
2019-03-26T15:21:19.989Z,3.87
2019-03-26T15:26:22.878Z,4.10
2019-03-26T15:31:25.441Z,4.40
2019-03-26T15:36:28.107Z,4.08
2019-03-26T15:41:30.789Z,4.67
2019-03-26T15:46:36.270Z,4.30
2019-03-26T15:51:37.907Z,4.85
2019-03-26T15:56:40.514Z,5.72
2019-03-26T16:01:43.281Z,4.25
2019-03-26T16:06:45.828Z,5.20
2019-03-26T16:11:48.461Z,4.95
2019-03-26T16:16:51.290Z,5.75
2019-03-26T16:21:54.139Z,5.62
2019-03-26T16:26:56.739Z,7.62
2019-03-26T16:31:59.386Z,6.67
2019-03-26T16:37:02.001Z,7.20
2019-03-26T16:42:04.715Z,6.35
2019-03-26T16:47:09.933Z,6.12
2019-03-26T16:52:12.809Z,6.05
2019-03-26T16:57:15.395Z,6.80
2019-03-26T17:02:18.295Z,5.92
2019-03-26T17:07:20.982Z,5.78
2019-03-26T17:12:23.678Z,6.37
2019-03-26T17:17:26.275Z,6.10
2019-03-26T17:22:29.139Z,6.15
2019-03-26T17:27:31.767Z,6.03
2019-03-26T17:32:34.388Z,6.08
2019-03-26T17:37:36.997Z,6.03
2019-03-26T17:42:39.602Z,6.25
2019-03-26T17:47:42.215Z,5.80
2019-03-26T17:52:45.854Z,5.67
2019-03-26T17:57:48.465Z,5.78
2019-03-26T18:02:51.048Z,6.97
2019-03-26T18:07:54.821Z,6.10
2019-03-26T18:12:57.416Z,7.00
2019-03-26T18:18:00.021Z,6.70
2019-03-26T18:23:02.616Z,6.62
2019-03-26T18:28:05.424Z,6.45
2019-03-26T18:33:08.134Z,6.22
2019-03-26T18:38:14.745Z,6.00
2019-03-26T18:43:16.396Z,6.85
2019-03-26T18:48:19.348Z,6.58
2019-03-26T18:53:22.029Z,5.78
2019-03-26T18:58:24.716Z,5.60
2019-03-26T19:03:27.663Z,5.65
2019-03-26T19:08:30.494Z,6.58
2019-03-26T19:13:33.129Z,5.30
2019-03-26T19:18:35.829Z,6.55
2019-03-26T19:23:38.507Z,6.30
2019-03-26T19:28:41.179Z,6.92
2019-03-26T19:33:43.856Z,7.00
2019-03-26T19:38:46.421Z,8.10
2019-03-26T19:43:49.251Z,8.73
2019-03-26T19:48:51.891Z,8.63
2019-03-26T19:53:54.531Z,8.30
2019-03-26T19:58:57.136Z,9.45
2019-03-26T20:03:59.820Z,9.50
2019-03-26T20:09:04.050Z,9.08
2019-03-26T20:14:06.649Z,9.88
2019-03-26T20:19:09.734Z,10.50
2019-03-26T20:24:12.443Z,9.55
2019-03-26T20:29:16.053Z,10.50
2019-03-26T20:34:18.690Z,10.58
2019-03-26T20:39:21.608Z,10.45
2019-03-26T20:44:24.449Z,11.80
2019-03-26T20:49:27.097Z,10.23
2019-03-26T20:54:29.772Z,11.20
2019-03-26T20:59:32.700Z,11.65
2019-03-26T21:04:35.357Z,11.97
2019-03-26T21:09:38.052Z,12.43
2019-03-26T21:14:40.955Z,11.50
2019-03-26T21:19:43.658Z,11.88
2019-03-26T21:24:46.603Z,11.85
2019-03-26T21:29:49.589Z,11.50
2019-03-26T21:34:56.416Z,12.65
2019-03-26T21:40:06.139Z,12.33
2019-03-26T21:45:09.515Z,11.68
2019-03-26T21:50:12.772Z,12.35
2019-03-26T21:55:15.556Z,12.20
2019-03-26T22:00:18.558Z,13.03
2019-03-26T22:05:21.291Z,13.90
2019-03-26T22:10:24.160Z,13.03
2019-03-26T22:15:27.981Z,13.40
2019-03-26T22:20:30.557Z,14.43
2019-03-26T22:25:33.186Z,13.38
2019-03-26T22:30:41.632Z,14.07
2019-03-26T22:35:44.402Z,13.65
2019-03-26T22:40:47.032Z,13.50
2019-03-26T22:45:49.641Z,12.58
2019-03-26T22:50:52.286Z,14.53
2019-03-26T22:55:55.398Z,14.05
2019-03-26T23:00:58.012Z,13.53
2019-03-26T23:06:01.044Z,13.55
2019-03-26T23:11:03.851Z,12.93
2019-03-26T23:16:06.616Z,14.80
2019-03-26T23:21:09.288Z,12.65
2019-03-26T23:26:11.851Z,14.03
2019-03-26T23:31:14.750Z,12.37
2019-03-26T23:36:17.479Z,12.98
2019-03-26T23:41:20.165Z,11.88
2019-03-26T23:46:22.941Z,12.37
2019-03-26T23:51:25.546Z,11.57
2019-03-26T23:56:29.162Z,12.53
